Winona, MN

11:22 AM CDT on May 22, 2017 (GMT -0500)
Near Watkins | | Change Station
Active Advisory: Flood Warning

Elev 659 ft 44.05 °N, 91.63 °W | Updated 3 seconds ago

Clear
Clear
64.6 °F
Feels Like 64.6 °F
N
0.0
Wind Variable Wind from North
Gusts 3.0 mph

Today
High -- | Low -- °F
--% Chance of Precip.
Yesterday
High -- | Low -- °F
Precip. -- in
Pressure 29.87 in
Visibility 10.0 miles
Clouds Clear
Dew Point 50 °F
Humidity 58%
Rainfall 0.00 in
Snow Depth Not available.
5:33 AM 8:33 PM
Waning Crescent, 14% visible
METAR KONA 221612Z AUTO 00000KT 10SM CLR 16/07 A2987 RMK AO2
Pressure 29.87 in
Visibility 10.0 miles
Clouds Clear
Dew Point 50 °F
Humidity 58%
Rainfall 0.00 in
Snow Depth Not available.
5:33 AM 8:33 PM
Waning Crescent, 14% visible
METAR KONA 221612Z AUTO 00000KT 10SM CLR 16/07 A2987 RMK AO2

Get Your Daily Forecast Email!

Thanks for signing up!

Be on the lookout for a verification email in your inbox.

You'll start receiving severe weather alerts in your inbox..

×

10-Day Weather Forecast

Almanac

Astronomy

May. 22, 2017 Rise Set
Actual Time
Civil Twilight
Nautical Twilight
Astronomical Twilight
Moon
Length of Visible Light
Length of Day
Tomorrow will be .
, % of the Moon is Illuminated

Today's Extremes

State Highs State Lows

Community

WunderPhotos

Category 6

Welcome to Category 6. This is the collective home for Weather Underground's featured writeups by Dr. Jeff Masters (right), Bob Henson (left), Chris Burt, and other regular contributors.

Nearby

Air Quality

  Air Quality AQ Index Pollutant
Not available.

Snow Depth

Station Depth Elevation

Earthquake Activity

City Distance Mag. Time & Date
Minimum magnitude displayed is 2.5.

Coastal Water Temperatures

Place Temperature

Stations

Nearby Weather Stations

Station Location Temp. Windchill Dew Point Humidity Wind Precip. Elev Updated Type
                   

Watches & Warnings

Flood Warning
Issued: 10:46 AM CDT May. 22, 2017 – National Weather Service

The National Weather Service in La Crosse WI has issued a

* Flood Warning for
the Mississippi River at Winona.
* From late tonight to Monday may 29.
* At 9:45 am Monday the stage was 12.0 feet.
* Flood stage is 13.0 feet.
* Minor flooding is forecast.
* Forecast... rise above flood stage by Tuesday morning and continue
to rise to near 13.9 feet by Wednesday evening. The river will fall
below flood stage by Sunday.
* Impact... at 13.0 feet... Prairie Island park begins to flood. Pumping
operations are underway by the city of Winona, and dike patrols are
started.


Lat... Lon 4419 9179 4401 9142 4398 9147 4407 9172 4415 9182